MBW weather

Melbourne Moorabbin Airport
Melbourne, Victoria, Australia

Public forecast

Using degrees Celsius for public forecast. Weather courtesy of forecast.io.

METAR (pilot weather report)

Closest report is Melbourne Essendon Airport, 17.6 nm (32.7 km) NNW. Retrieved 2018/05/21 22:00 UTC (11 minutes ago):

YMEN 212200Z AUTO 27013KT 9999 // BKN018 OVC042 14/13 Q1023

TAF (pilot weather forecast)

Forecast is more than 6 hours old.

Closest forecast is Melbourne International Airport, 21.9 nm (40.6 km) NW. Retrieved 2018/05/21 12:00 UTC (10 hours ago):

TAF YMML 211116Z 2112/2218 26014KT 9999 -SHRA SCT020 BKN040 FM211600 27011KT 9999 -SHRA SCT012 BKN020 FM212100 25012KT 9999 -SHRA FEW010 BKN015 FM220200 25012KT 9999 -SHRA FEW015 BKN025